Time;durP1;ratioP1;P1;durP2;ratioP2;P2;SDS_P1;SDS_P2;PMS_P1;PMS_P2;Temp;Humidity;BMP_temperature;BMP_pressure;BME280_temperature;BME280_humidity;BME280_pressure;Samples;Min_cycle;Max_cycle;Signal;HPM_P1;HPM_P2
2024/02/08 00:06:16;;;;;;;;;;;;;;;7.42;60.32;98846.06;6198406;23;20487;-96
2024/02/08 00:08:42;;;;;;;20.75;11.48;;;;;;;7.13;60.72;98810.84;6141525;23;19924;-95
2024/02/08 00:11:14;;;;;;;18.48;11.15;;;;;;;7.38;60.69;98836.13;6117629;23;20029;-96
2024/02/08 00:32:37;;;;;;;21.58;12.93;;;;;;;6.71;61.97;98810.84;6221983;22;20029;-95
2024/02/08 00:35:10;;;;;;;24.48;13.00;;;;;;;6.74;62.40;98815.69;6149333;23;20040;-96
2024/02/08 00:37:35;;;;;;;23.48;14.02;;;;;;;6.66;62.23;98803.56;6170407;23;20000;-95
2024/02/08 00:40:01;;;;;;;28.50;14.50;;;;;;;6.62;61.90;98807.81;6143001;23;20031;-95
2024/02/08 00:42:27;;;;;;;28.52;13.98;;;;;;;6.63;62.07;98801.44;6142690;23;20092;-96
2024/02/08 00:45:10;;;;;;;21.98;14.90;;;;;;;6.72;62.67;98815.94;6144288;23;20016;-96
2024/02/08 00:47:36;;;;;;;29.70;15.10;;;;;;;6.56;62.49;98785.59;6168450;23;20387;-95
2024/02/08 00:50:03;;;;;;;26.55;16.40;;;;;;;6.66;62.24;98809.75;6142911;23;20001;-96
2024/02/08 00:52:29;;;;;;;33.30;17.75;;;;;;;6.60;62.48;98809.94;6167782;23;20507;-94
2024/02/08 00:54:55;;;;;;;30.27;16.67;;;;;;;6.46;62.37;98783.66;6144428;23;20000;-96
2024/02/08 01:03:09;;;;;;;26.65;15.70;;;;;;;6.84;61.43;98794.34;6163013;23;20078;-95
2024/02/08 01:05:39;;;;;;;29.75;15.57;;;;;;;6.93;61.57;98798.16;6114122;23;20026;-96
2024/02/08 01:08:18;;;;;;;32.85;17.45;;;;;;;7.00;61.26;98801.41;6145667;23;20017;-96
2024/02/08 01:10:49;;;;;;;29.65;15.30;;;;;;;7.07;61.73;98798.50;6120176;23;20448;-96
2024/02/08 01:13:18;;;;;;;25.33;14.68;;;;;;;6.86;61.47;98776.16;6165188;23;20024;-96
2024/02/08 01:15:46;;;;;;;34.55;16.67;;;;;;;6.78;61.91;98774.78;6110540;23;20009;-96
2024/02/08 01:18:13;;;;;;;29.17;16.65;;;;;;;6.77;61.97;98789.22;6084703;23;20480;-96
2024/02/08 01:20:42;;;;;;;28.65;15.70;;;;;;;6.75;61.80;98780.66;6084527;23;20005;-96
2024/02/08 01:23:11;;;;;;;31.70;15.77;;;;;;;6.73;62.10;98781.97;6085116;23;20429;-96
2024/02/08 01:25:41;;;;;;;25.58;14.80;;;;;;;6.76;61.75;98779.56;6108339;23;20005;-96
2024/02/08 01:28:07;;;;;;;30.42;15.68;;;;;;;6.86;61.74;98778.84;6087049;23;20001;-95
2024/02/08 01:30:35;;;;;;;32.78;15.60;;;;;;;7.02;61.53;98796.59;6108353;23;20120;-96
2024/02/08 01:33:10;;;;;;;29.45;15.38;;;;;;;6.90;61.63;98771.09;6086466;23;20006;-96
2024/02/08 01:35:40;;;;;;;26.95;15.63;;;;;;;6.90;61.87;98784.47;6086878;23;20457;-95
2024/02/08 01:38:07;;;;;;;29.50;15.98;;;;;;;7.00;61.24;98796.06;6086102;23;20013;-96
2024/02/08 01:40:32;;;;;;;28.83;15.57;;;;;;;6.70;62.26;98785.16;6109255;23;20005;-95
2024/02/08 01:42:58;;;;;;;29.90;15.75;;;;;;;6.65;62.05;98780.56;6107795;23;20384;-96
2024/02/08 01:45:31;;;;;;;31.58;16.77;;;;;;;6.57;62.25;98768.47;6084699;23;20011;-95
2024/02/08 01:48:10;;;;;;;31.30;16.05;;;;;;;6.57;62.31;98784.53;6086746;23;20028;-96
2024/02/08 01:50:41;;;;;;;27.65;16.33;;;;;;;6.43;62.61;98759.28;6111206;23;20008;-96
2024/02/08 01:53:13;;;;;;;29.83;16.27;;;;;;;6.54;62.99;98781.59;6112199;23;19997;-96
2024/02/08 01:55:39;;;;;;;26.77;15.43;;;;;;;6.32;63.17;98757.59;6085731;23;20025;-96
2024/02/08 01:58:12;;;;;;;28.73;16.42;;;;;;;6.43;63.01;98765.47;6084687;23;20001;-94
2024/02/08 02:00:38;;;;;;;26.38;16.10;;;;;;;6.38;62.79;98751.25;6111930;23;20416;-95
2024/02/08 02:03:10;;;;;;;34.85;17.33;;;;;;;6.37;63.44;98755.78;6090992;23;20018;-96
2024/02/08 02:05:42;;;;;;;29.73;17.20;;;;;;;6.43;62.58;98756.59;6091331;23;20005;-95
2024/02/08 02:21:20;;;;;;;29.35;15.18;;;;;;;6.50;62.61;98767.91;6142600;23;20101;-96
2024/02/08 02:23:51;;;;;;;28.05;15.50;;;;;;;6.45;62.55;98749.13;6131759;23;20099;-95
2024/02/08 02:26:18;;;;;;;31.75;17.02;;;;;;;6.43;62.92;98751.25;6182139;23;20022;-96
2024/02/08 02:28:44;;;;;;;27.10;16.27;;;;;;;6.42;62.86;98752.34;6180114;23;20000;-95
2024/02/08 02:31:13;;;;;;;31.35;16.05;;;;;;;6.51;62.78;98745.44;6204655;23;19996;-96
2024/02/08 02:33:42;;;;;;;35.22;16.77;;;;;;;6.44;63.17;98750.22;6182526;23;20438;-96
2024/02/08 02:36:07;;;;;;;31.05;16.23;;;;;;;6.40;62.80;98749.91;6203939;23;20004;-96
2024/02/08 02:38:35;;;;;;;23.90;14.93;;;;;;;6.42;63.26;98760.34;6179154;23;19996;-96
2024/02/08 02:41:06;;;;;;;27.85;15.77;;;;;;;6.51;63.20;98766.03;6180483;23;20370;-96
2024/02/08 02:43:34;;;;;;;29.15;16.25;;;;;;;6.42;62.60;98750.47;6206166;23;20087;-96
2024/02/08 02:46:02;;;;;;;28.92;15.75;;;;;;;6.51;62.86;98758.00;6204093;23;20059;-96
2024/02/08 02:48:28;;;;;;;26.30;15.85;;;;;;;6.43;62.87;98749.41;6179921;23;20075;-96
2024/02/08 02:50:54;;;;;;;27.15;15.90;;;;;;;6.42;63.02;98750.47;6179024;23;20499;-96
2024/02/08 02:53:24;;;;;;;28.55;16.10;;;;;;;6.40;62.88;98741.88;6178883;23;20000;-96
2024/02/08 02:55:51;;;;;;;29.50;16.20;;;;;;;6.53;62.65;98774.59;6175575;23;20347;-96
2024/02/08 02:58:19;;;;;;;31.60;15.82;;;;;;;6.44;63.30;98774.28;6199865;23;20039;-96
2024/02/08 03:00:45;;;;;;;28.25;15.18;;;;;;;6.36;63.47;98775.56;6175341;23;19999;-96
2024/02/08 03:03:15;;;;;;;23.58;14.50;;;;;;;6.31;63.82;98780.88;6174576;23;20007;-96
2024/02/08 03:05:47;;;;;;;31.60;16.35;;;;;;;6.34;63.33;98774.19;6176500;23;20008;-96
2024/02/08 03:08:16;;;;;;;24.23;15.57;;;;;;;6.24;63.49;98773.03;6176272;23;20347;-96
2024/02/08 03:10:42;;;;;;;29.23;14.70;;;;;;;6.23;63.42;98767.97;6175999;23;20327;-95
2024/02/08 03:13:10;;;;;;;28.25;15.25;;;;;;;6.34;63.39;98787.56;6173524;23;20000;-96
2024/02/08 03:15:39;;;;;;;26.25;16.20;;;;;;;6.23;63.16;98787.47;6175743;23;20006;-96
2024/02/08 03:18:07;;;;;;;23.75;15.52;;;;;;;6.08;63.73;98782.00;6176143;23;20004;-96
2024/02/08 03:20:35;;;;;;;30.00;16.35;;;;;;;6.13;63.77;98800.75;6200066;23;20007;-96
2024/02/08 03:23:01;;;;;;;27.15;14.32;;;;;;;6.04;64.45;98792.41;6199929;23;20016;-96
2024/02/08 03:25:35;;;;;;;24.45;14.45;;;;;;;6.12;64.01;98817.88;6174942;23;20057;-96
2024/02/08 03:28:04;;;;;;;25.13;14.10;;;;;;;6.02;64.00;98788.38;6178440;23;20423;-96
2024/02/08 03:30:32;;;;;;;29.20;14.23;;;;;;;6.10;64.15;98787.91;6175246;23;20030;-96
2024/02/08 03:32:58;;;;;;;25.02;14.35;;;;;;;6.26;63.71;98819.03;6176510;23;19981;-96
2024/02/08 03:35:25;;;;;;;26.20;14.50;;;;;;;6.09;63.64;98801.53;6174664;23;20034;-96
2024/02/08 03:38:00;;;;;;;22.08;14.32;;;;;;;6.24;63.61;98810.47;6198573;23;20442;-96
2024/02/08 03:40:29;;;;;;;24.55;13.32;;;;;;;6.11;64.23;98802.88;6200371;23;20173;-96
2024/02/08 03:42:57;;;;;;;26.15;13.65;;;;;;;6.16;63.98;98804.78;6174985;23;20085;-96
2024/02/08 03:45:23;;;;;;;25.65;13.75;;;;;;;6.19;63.47;98793.59;6175804;23;20080;-96
2024/02/08 03:47:50;;;;;;;25.40;13.57;;;;;;;6.20;63.69;98789.84;6174390;23;20008;-95
2024/02/08 03:50:16;;;;;;;27.08;13.65;;;;;;;6.25;63.74;98788.03;6175785;23;20082;-95
2024/02/08 03:52:42;;;;;;;24.73;13.55;;;;;;;6.24;63.29;98774.91;6174297;23;20000;-96
2024/02/08 03:55:26;;;;;;;23.55;13.95;;;;;;;6.17;63.74;98791.16;6174141;23;19987;-96
2024/02/08 03:59:07;;;;;;;25.00;14.30;;;;;;;6.17;64.21;98812.56;6218447;22;20040;-94
2024/02/08 04:07:21;;;;;;;23.65;14.18;;;;;;;5.88;64.38;98780.72;6226902;22;20082;-95
2024/02/08 04:09:50;;;;;;;26.70;13.70;;;;;;;5.93;64.28;98793.31;6147370;23;20012;-96
2024/02/08 04:54:57;;;;;;;28.48;15.07;;;;;;;5.93;64.53;98816.56;6235483;22;20024;-96
2024/02/08 05:27:04;;;;;;;35.53;15.95;;;;;;;5.86;64.34;98830.91;6182850;22;20221;-96
2024/02/08 05:32:25;;;;;;;29.30;16.42;;;;;;;5.99;64.01;98834.28;6223576;22;20050;-96
2024/02/08 05:34:54;;;;;;;34.90;18.52;;;;;;;5.92;63.75;98813.09;6200499;23;20008;-96
2024/02/08 05:40:31;;;;;;;33.90;16.55;;;;;;;5.97;64.13;98834.53;6241875;22;20008;-96
2024/02/08 05:42:58;;;;;;;25.88;16.27;;;;;;;5.92;63.28;98814.97;6195690;23;20013;-96
2024/02/08 05:45:30;;;;;;;44.97;21.98;;;;;;;5.83;63.62;98818.06;6144515;23;20000;-96
2024/02/08 05:48:05;;;;;;;283.75;145.32;;;;;;;5.74;63.95;98818.75;6152481;23;20004;-96
2024/02/08 05:50:58;;;;;;;37.03;20.13;;;;;;;5.78;64.69;98828.69;6157738;23;19997;-96
2024/02/08 05:53:34;;;;;;;36.72;18.08;;;;;;;5.91;63.99;98821.34;6165570;23;20001;-96
2024/02/08 06:22:16;;;;;;;;;;;;;;;6.39;63.75;98865.97;6232074;22;20056;-96
2024/02/08 06:25:08;;;;;;;33.05;18.20;;;;;;;6.31;63.35;98844.22;6205745;23;19911;-95
2024/02/08 06:27:50;;;;;;;32.88;18.98;;;;;;;6.63;62.74;98839.69;6179521;23;20083;-96
2024/02/08 06:30:25;;;;;;;60.72;23.13;;;;;;;6.83;61.71;98841.72;6175552;23;20031;-95
2024/02/08 06:36:24;;;;;;;24.67;12.68;;;;;;;7.56;60.01;98875.06;6183704;23;20075;-96
2024/02/08 07:39:46;;;;;;;38.45;21.05;;;;;;;9.30;55.51;98835.81;6231927;22;20034;-96
2024/02/08 07:51:23;;;;;;;29.95;13.77;;;;;;;9.93;53.52;98839.06;6223320;23;20020;-96
2024/02/08 07:53:58;;;;;;;25.70;13.93;;;;;;;10.15;53.05;98838.66;6136760;23;20024;-96
2024/02/08 07:59:15;;;;;;;36.90;17.92;;;;;;;10.51;52.49;98836.56;6139973;23;20017;-96
2024/02/08 08:02:07;;;;;;;;;;;;;;;;;;;;;
2024/02/08 08:04:54;;;;;;;30.85;16.48;;;;;;;10.51;52.63;98825.81;6222164;22;20017;-96
2024/02/08 08:07:34;;;;;;;35.30;16.52;;;;;;;10.78;52.05;98837.97;6159553;23;20007;-96
2024/02/08 08:59:03;;;;;;;;;;;;;;;;;;;;;
2024/02/08 09:02:25;;;;;;;;;;;;;;;;;;;;;
2024/02/08 09:11:37;;;;;;;32.95;16.02;;;;;;;13.23;45.15;98835.75;6074921;23;20082;-96
2024/02/08 09:15:00;;;;;;;36.00;14.70;;;;;;;13.35;45.13;98836.09;6058624;23;19998;-96
2024/02/08 09:18:08;;;;;;;32.88;14.70;;;;;;;13.38;44.28;98813.84;6037426;23;20007;-96
2024/02/08 09:21:31;;;;;;;;;;;;;;;;;;;;;
2024/02/08 09:24:05;;;;;;;48.85;16.98;;;;;;;13.75;44.32;98830.94;6141381;23;20037;-96
2024/02/08 09:27:31;;;;;;;36.88;16.83;;;;;;;13.88;43.72;98824.72;6086774;23;20061;-95
2024/02/08 09:29:57;;;;;;;34.25;15.48;;;;;;;14.03;43.57;98811.94;6109809;23;20014;-95
2024/02/08 09:33:04;;;;;;;25.73;13.02;;;;;;;14.14;42.60;98816.81;6107855;23;20336;-96
2024/02/08 09:35:30;;;;;;;26.42;9.50;;;;;;;14.32;41.17;98815.06;6106865;23;20002;-95
2024/02/08 09:38:06;;;;;;;13.45;6.70;;;;;;;14.51;40.04;98812.19;6084764;23;20065;-96
2024/02/08 09:43:35;;;;;;;10.65;5.13;;;;;;;14.92;39.61;98818.50;6215253;22;20031;-95
2024/02/08 09:52:03;;;;;;;5.90;3.22;;;;;;;15.31;37.29;98812.31;6229209;22;20035;-96
2024/02/08 10:54:39;;;;;;;7.45;2.97;;;;;;;16.98;32.41;98728.94;6195026;22;20029;-96
2024/02/08 10:57:33;;;;;;;3.13;2.00;;;;;;;16.89;32.45;98710.75;6151564;23;20502;-95
2024/02/08 10:59:55;;;;;;;5.32;2.20;;;;;;;16.93;32.09;98702.72;6145325;23;20001;-96
2024/02/08 11:03:00;;;;;;;3.88;1.83;;;;;;;16.94;32.29;98694.22;6115848;23;20007;-95
2024/02/08 11:09:31;;;;;;;13.38;4.50;;;;;;;17.14;32.39;98710.91;6141036;23;20055;-95
2024/02/08 11:18:55;;;;;;;30.25;3.72;;;;;;;17.13;32.35;98674.75;6255228;22;20020;-96
2024/02/08 11:21:43;;;;;;;6.30;2.10;;;;;;;17.16;32.04;98686.91;6210356;23;20015;-96
2024/02/08 11:30:42;;;;;;;9.43;2.10;;;;;;;17.19;32.12;98674.59;6213740;23;20010;-96
2024/02/08 11:33:22;;;;;;;5.18;2.05;;;;;;;17.11;32.40;98676.22;6212169;23;20000;-95
2024/02/08 11:36:50;;;;;;;;;;;;;;;;;;;;;
2024/02/08 11:39:33;;;;;;;3.70;2.50;;;;;;;16.96;33.31;98670.22;6169075;23;20046;-96
2024/02/08 11:42:15;;;;;;;7.22;3.50;;;;;;;17.01;32.48;98652.91;6179311;23;20000;-94
2024/02/08 11:44:44;;;;;;;5.07;2.45;;;;;;;17.09;32.69;98660.22;6223154;23;20004;-94
2024/02/08 11:47:30;;;;;;;7.25;3.20;;;;;;;17.15;32.72;98652.69;6203447;23;20058;-96
2024/02/08 11:50:02;;;;;;;6.38;2.67;;;;;;;17.19;33.01;98641.94;6185776;23;20065;-96
2024/02/08 11:52:38;;;;;;;4.32;2.47;;;;;;;17.16;32.85;98649.63;6181685;23;20007;-96
2024/02/08 11:55:14;;;;;;;6.20;2.45;;;;;;;17.23;32.84;98648.31;6205835;23;20000;-94
2024/02/08 11:57:40;;;;;;;7.00;2.35;;;;;;;17.28;32.65;98645.38;6203146;23;20015;-92
2024/02/08 12:00:16;;;;;;;4.18;2.20;;;;;;;17.31;31.66;98655.63;6177544;23;20000;-92
2024/02/08 12:02:56;;;;;;;6.20;2.13;;;;;;;17.38;31.98;98647.72;6203716;23;20023;-95
2024/02/08 12:05:25;;;;;;;9.35;2.70;;;;;;;17.37;31.70;98646.94;6206916;23;20030;-92
2024/02/08 12:07:51;;;;;;;5.88;2.22;;;;;;;17.40;31.74;98650.91;6203640;23;20011;-91
2024/02/08 12:10:22;;;;;;;8.43;2.63;;;;;;;17.40;31.65;98648.19;6199192;23;20000;-96
2024/02/08 12:13:05;;;;;;;8.93;3.03;;;;;;;17.41;31.84;98641.63;6200906;23;19996;-96
2024/02/08 12:15:35;;;;;;;4.32;2.00;;;;;;;17.40;30.85;98631.84;6186794;23;20000;-96
2024/02/08 12:18:09;;;;;;;6.78;1.80;;;;;;;17.48;30.42;98646.53;6200253;23;20422;-96
2024/02/08 12:20:47;;;;;;;6.57;2.50;;;;;;;17.51;30.97;98632.25;6198668;23;20081;-95
2024/02/08 12:23:30;;;;;;;6.57;2.00;;;;;;;17.48;30.91;98635.66;6196632;23;20066;-95
2024/02/08 12:26:30;;;;;;;6.05;2.10;;;;;;;17.48;31.09;98632.94;6174711;23;20000;-95
2024/02/08 12:29:24;;;;;;;6.25;1.75;;;;;;;17.45;30.48;98626.22;6179932;23;19999;-93
2024/02/08 12:31:54;;;;;;;7.82;2.90;;;;;;;17.56;29.78;98632.06;6181025;23;20007;-92
2024/02/08 12:35:08;;;;;;;;;;;;;;;;;;;;;
2024/02/08 12:37:33;;;;;;;5.68;2.10;;;;;;;17.50;30.38;98620.56;6225779;23;20075;-91
2024/02/08 12:39:59;;;;;;;5.28;2.00;;;;;;;17.55;30.42;98619.56;6168942;23;20023;-92
2024/02/08 12:42:39;;;;;;;3.60;1.80;;;;;;;17.58;30.60;98633.31;6195759;23;20015;-94
2024/02/08 12:45:12;;;;;;;6.00;2.60;;;;;;;17.63;30.37;98618.69;6197633;23;20004;-93
2024/02/08 12:47:40;;;;;;;4.22;1.92;;;;;;;17.47;30.47;98621.25;6196684;23;20011;-94
2024/02/08 12:50:09;;;;;;;3.35;1.60;;;;;;;17.57;30.28;98623.53;6194782;23;20036;-92
2024/02/08 12:52:40;;;;;;;5.40;1.70;;;;;;;17.66;30.57;98637.09;6198985;23;19996;-96
2024/02/08 12:55:13;;;;;;;3.65;1.80;;;;;;;17.58;30.26;98611.53;6177105;23;20000;-96
2024/02/08 12:57:55;;;;;;;3.58;1.80;;;;;;;17.58;30.45;98610.75;6175289;23;20056;-94
2024/02/08 13:00:24;;;;;;;2.80;1.77;;;;;;;17.61;30.23;98614.72;6202121;23;20008;-96
2024/02/08 13:03:05;;;;;;;4.97;2.00;;;;;;;17.71;30.35;98627.94;6197412;23;20000;-95
2024/02/08 13:05:54;;;;;;;;;;;;;;;;;;;;;
2024/02/08 13:08:26;;;;;;;7.97;2.47;;;;;;;17.83;30.23;98614.41;6205292;23;20042;-95
2024/02/08 13:10:56;;;;;;;2.90;1.80;;;;;;;17.75;30.22;98598.91;6173619;23;20000;-95
2024/02/08 13:13:24;;;;;;;6.13;2.67;;;;;;;17.71;30.18;98587.09;6198690;23;20000;-96
2024/02/08 13:16:26;;;;;;;4.95;1.58;;;;;;;17.76;30.38;98595.03;6196242;23;20422;-95
2024/02/08 13:18:54;;;;;;;6.35;2.00;;;;;;;17.77;30.12;98611.03;6204323;23;20023;-95
2024/02/08 13:21:24;;;;;;;5.63;1.70;;;;;;;17.77;30.28;98599.38;6196838;23;19996;-95
2024/02/08 13:24:07;;;;;;;3.45;1.70;;;;;;;17.76;29.95;98595.03;6208456;23;20087;-96
2024/02/08 13:29:11;;;;;;;4.82;2.10;;;;;;;17.85;29.86;98609.41;6224619;22;20016;-95
2024/02/08 13:32:27;;;;;;;2.97;1.77;;;;;;;17.92;29.33;98612.38;6156694;23;20028;-96
2024/02/08 13:35:29;;;;;;;3.03;1.90;;;;;;;17.90;29.73;98620.06;6224208;23;20012;-96
2024/02/08 13:37:59;;;;;;;3.00;1.77;;;;;;;17.66;29.89;98599.00;6168387;23;20012;-95
2024/02/08 13:41:11;;;;;;;;;;;;;;;;;;;;;
2024/02/08 13:49:15;;;;;;;6.03;2.33;;;;;;;17.65;30.60;98602.81;6207374;22;20048;-96
2024/02/08 13:51:50;;;;;;;2.53;1.65;;;;;;;17.57;30.45;98590.88;6183509;23;20032;-96
2024/02/08 13:54:54;;;;;;;;;;;;;;;;;;;;;
2024/02/08 13:57:21;;;;;;;6.75;1.75;;;;;;;17.67;30.51;98616.13;6203405;23;20051;-95
2024/02/08 13:59:55;;;;;;;3.35;1.67;;;;;;;17.45;30.51;98593.56;6145620;23;20008;-96
2024/02/08 14:02:32;;;;;;;3.97;1.80;;;;;;;17.58;30.66;98610.75;6145118;23;20000;-96
2024/02/08 14:05:04;;;;;;;4.18;1.60;;;;;;;17.51;30.69;98603.09;6141188;23;20009;-94
2024/02/08 14:10:31;;;;;;;4.13;2.00;;;;;;;17.51;30.78;98599.59;6123989;23;20019;-96
2024/02/08 14:13:06;;;;;;;5.57;1.90;;;;;;;17.40;31.04;98590.25;6194486;23;20008;-95
2024/02/08 14:16:20;;;;;;;3.78;2.08;;;;;;;17.57;30.92;98623.53;6155355;23;19993;-96
2024/02/08 14:22:38;;;;;;;10.57;2.35;;;;;;;17.49;31.38;98621.72;6229969;22;20287;-96
2024/02/08 14:25:37;;;;;;;6.28;2.95;;;;;;;17.34;31.57;98620.38;6157544;23;20002;-96
2024/02/08 14:52:14;;;;;;;3.22;1.52;;;;;;;16.94;32.46;98590.88;6221860;22;20020;-96
2024/02/08 14:54:42;;;;;;;7.68;2.40;;;;;;;16.86;32.64;98596.38;6188346;23;20015;-96
2024/02/08 14:57:47;;;;;;;7.45;2.95;;;;;;;16.72;32.67;98583.78;6152208;23;20000;-96
2024/02/08 15:01:37;;;;;;;8.80;2.85;;;;;;;16.68;33.37;98580.13;6110503;23;20055;-95
2024/02/08 15:32:40;;;;;;;17.63;6.55;;;;;;;15.91;35.78;98618.13;6158107;23;20031;-96
2024/02/08 15:35:22;;;;;;;14.10;7.97;;;;;;;15.83;36.71;98612.72;6180961;23;19997;-96
2024/02/08 15:40:45;;;;;;;18.20;4.90;;;;;;;15.53;37.28;98605.22;6184036;23;20011;-96
2024/02/08 15:43:15;;;;;;;13.80;5.07;;;;;;;15.48;38.13;98613.53;6154957;23;20019;-95
2024/02/08 15:45:45;;;;;;;21.80;4.50;;;;;;;15.33;38.02;98620.19;6150549;23;20004;-96
2024/02/08 15:48:44;;;;;;;16.08;5.13;;;;;;;15.22;38.56;98626.28;6150082;23;20001;-96
2024/02/08 15:53:56;;;;;;;38.90;6.85;;;;;;;14.94;38.62;98615.69;6183075;22;20020;-96
2024/02/08 15:56:55;;;;;;;12.30;3.80;;;;;;;14.87;38.70;98615.34;6163354;23;20435;-96
2024/02/08 15:59:22;;;;;;;4.35;1.88;;;;;;;14.83;37.53;98625.22;6168880;23;20000;-96
2024/02/08 16:01:58;;;;;;;4.45;2.15;;;;;;;14.83;37.31;98630.66;6149624;23;20007;-96
2024/02/08 16:04:53;;;;;;;9.93;5.68;;;;;;;14.83;37.80;98634.16;6154931;23;20038;-96
2024/02/08 16:07:27;;;;;;;10.80;5.38;;;;;;;14.86;38.08;98641.66;6160084;23;20011;-96
2024/02/08 16:10:19;;;;;;;41.97;17.15;;;;;;;14.86;38.33;98646.31;6152488;23;20008;-96
2024/02/08 16:12:47;;;;;;;12.80;6.25;;;;;;;14.71;38.22;98623.94;6177688;23;20004;-96
2024/02/08 16:15:19;;;;;;;21.60;9.00;;;;;;;14.80;38.18;98651.06;6147220;23;20004;-96
2024/02/08 16:18:03;;;;;;;25.50;8.35;;;;;;;14.60;38.92;98633.44;6144513;23;20031;-96
2024/02/08 16:20:35;;;;;;;70.07;33.70;;;;;;;14.50;39.57;98636.41;6151092;23;20008;-96
2024/02/08 16:23:13;;;;;;;107.32;47.75;;;;;;;14.47;40.27;98645.16;6170427;23;20031;-96
2024/02/08 16:25:53;;;;;;;99.35;43.53;;;;;;;14.31;40.65;98640.13;6170525;23;20020;-96
2024/02/08 16:28:25;;;;;;;40.55;19.85;;;;;;;14.24;40.74;98650.63;6171096;23;20000;-96
2024/02/08 16:33:54;;;;;;;26.38;10.85;;;;;;;14.04;41.62;98651.94;6172437;23;20054;-95
2024/02/08 16:39:06;;;;;;;26.13;11.15;;;;;;;13.86;42.36;98679.97;6174926;23;20079;-96
2024/02/08 16:41:47;;;;;;;22.80;13.25;;;;;;;13.66;42.20;98660.44;6152556;23;19997;-96
2024/02/08 16:44:16;;;;;;;25.25;11.32;;;;;;;13.56;42.08;98663.38;6155541;23;20009;-95
2024/02/08 16:46:55;;;;;;;21.27;9.43;;;;;;;13.53;42.29;98674.81;6174284;23;20000;-96
2024/02/08 16:49:27;;;;;;;17.55;9.00;;;;;;;13.52;42.36;98690.22;6148804;23;20016;-96
2024/02/08 16:52:32;;;;;;;;;;;;;;;;;;;;;
2024/02/08 16:55:12;;;;;;;19.20;10.60;;;;;;;13.44;42.42;98693.63;6200914;23;20012;-96
2024/02/08 16:57:44;;;;;;;23.03;12.20;;;;;;;13.36;42.53;98688.94;6205799;23;20374;-96
2024/02/08 17:03:36;;;;;;;17.65;8.85;;;;;;;13.34;43.13;98705.50;6218432;22;20011;-96
2024/02/08 17:05:56;;;;;;;20.08;6.95;;;;;;;13.10;43.37;98708.38;6227884;23;20010;-96
2024/02/08 17:08:29;;;;;;;19.92;7.07;;;;;;;13.04;43.46;98704.19;6194421;23;20020;-96
2024/02/08 17:11:15;;;;;;;19.98;10.23;;;;;;;13.04;43.54;98716.91;6172616;23;19996;-96
2024/02/08 17:13:50;;;;;;;19.23;6.85;;;;;;;12.89;43.66;98705.28;6176082;23;20008;-96
2024/02/08 17:19:22;;;;;;;17.92;9.13;;;;;;;12.90;44.32;98722.28;6197923;23;20007;-96
2024/02/08 17:24:29;;;;;;;19.17;8.45;;;;;;;12.73;44.46;98706.69;6192432;23;20012;-94
2024/02/08 17:27:02;;;;;;;19.75;8.93;;;;;;;12.82;44.81;98731.09;6194371;23;20445;-92
2024/02/08 17:29:44;;;;;;;25.98;10.68;;;;;;;12.73;45.64;98725.59;6168499;23;20001;-94
2024/02/08 17:32:12;;;;;;;;;;;;;;;12.70;45.76;98734.28;6173344;23;20008;-95
2024/02/08 17:34:41;;;;;;;19.60;8.85;;;;;;;12.59;45.75;98736.34;6197814;23;19904;-96
2024/02/08 17:40:54;;;;;;;33.13;9.90;;;;;;;12.27;45.88;98712.91;6227194;23;20031;-96
2024/02/08 17:43:38;;;;;;;33.78;9.88;;;;;;;12.20;46.14;98715.16;6184547;23;20423;-96
2024/02/08 17:46:11;;;;;;;26.85;9.95;;;;;;;12.16;46.43;98714.97;6208148;23;20004;-96
2024/02/08 17:49:25;;;;;;;42.55;23.90;;;;;;;12.06;46.46;98718.63;6205174;23;20064;-96
2024/02/08 17:51:56;;;;;;;34.97;17.60;;;;;;;12.20;46.91;98740.28;6148721;23;20387;-96
2024/02/08 17:54:31;;;;;;;30.00;14.23;;;;;;;12.14;46.94;98744.16;6117683;23;20088;-96
2024/02/08 17:57:11;;;;;;;;;;;;;;;;;;;;;
2024/02/08 17:59:43;;;;;;;56.80;20.98;;;;;;;11.91;46.81;98722.38;6148289;23;20032;-96
2024/02/08 18:02:43;;;;;;;56.15;23.05;;;;;;;12.07;47.30;98743.72;6121744;23;20425;-96
2024/02/08 18:05:26;;;;;;;79.22;30.30;;;;;;;11.88;47.60;98741.81;6197260;23;20013;-96
2024/02/08 18:07:55;;;;;;;48.80;19.80;;;;;;;11.70;47.93;98729.09;6086306;23;20049;-96
2024/02/08 18:10:37;;;;;;;52.58;18.88;;;;;;;11.65;48.27;98729.19;6061772;23;19986;-96
2024/02/08 18:13:09;;;;;;;48.47;18.38;;;;;;;11.57;48.33;98727.16;6069418;23;20011;-96
2024/02/08 18:15:58;;;;;;;55.80;18.70;;;;;;;11.66;48.84;98749.66;6080330;23;20107;-96
2024/02/08 18:18:24;;;;;;;19.27;8.05;;;;;;;11.44;48.45;98740.25;6152902;23;20012;-96
2024/02/08 18:20:57;;;;;;;30.42;9.63;;;;;;;11.39;48.65;98736.81;6120578;23;20012;-96
2024/02/08 18:23:29;;;;;;;29.00;10.43;;;;;;;11.32;48.31;98731.78;6146617;23;20063;-96
2024/02/08 18:26:11;;;;;;;;;;;;;;;11.40;48.54;98751.91;6125218;23;20061;-96
2024/02/08 18:28:40;;;;;;;29.73;9.93;;;;;;;11.24;48.93;98729.72;6175201;23;19904;-96
2024/02/08 18:31:09;;;;;;;23.80;10.05;;;;;;;11.07;49.52;98730.19;6128897;23;20251;-96
2024/02/08 18:33:37;;;;;;;22.48;11.38;;;;;;;11.18;49.93;98747.03;6183720;23;20000;-96
2024/02/08 18:36:07;;;;;;;28.17;12.55;;;;;;;11.04;50.30;98734.28;6184990;23;20079;-96
2024/02/08 18:38:39;;;;;;;32.17;13.15;;;;;;;11.00;50.53;98729.72;6180146;23;20008;-96
2024/02/08 18:41:08;;;;;;;35.70;12.30;;;;;;;10.95;50.48;98735.97;6180286;23;20485;-96
2024/02/08 18:43:37;;;;;;;34.88;12.40;;;;;;;11.01;50.55;98755.59;6178960;23;20019;-94
2024/02/08 18:46:06;;;;;;;36.60;11.60;;;;;;;10.87;50.40;98747.38;6176948;23;20000;-96
2024/02/08 18:48:44;;;;;;;42.28;12.63;;;;;;;10.75;50.78;98734.31;6180272;23;20007;-96
2024/02/08 18:51:12;;;;;;;43.85;13.90;;;;;;;10.83;50.70;98751.72;6186269;23;20449;-96
2024/02/08 18:53:40;;;;;;;43.47;18.33;;;;;;;10.80;51.26;98741.53;6184570;23;20008;-96
2024/02/08 18:56:18;;;;;;;37.80;15.68;;;;;;;10.78;50.86;98735.63;6185288;23;20017;-96
2024/02/08 18:59:21;;;;;;;35.17;13.75;;;;;;;10.74;50.20;98731.91;6186381;23;20026;-96
2024/02/08 19:02:04;;;;;;;43.25;14.65;;;;;;;10.70;50.48;98719.00;6211606;22;19984;-96
2024/02/08 19:04:41;;;;;;;34.20;14.45;;;;;;;10.68;50.47;98723.06;6191535;23;20382;-94
2024/02/08 19:07:11;;;;;;;29.60;13.30;;;;;;;10.78;50.47;98741.81;6184957;23;19996;-96
2024/02/08 19:09:43;;;;;;;27.33;13.48;;;;;;;10.61;51.01;98718.03;6185878;23;19999;-96
2024/02/08 19:12:41;;;;;;;31.80;12.50;;;;;;;10.49;51.00;98717.63;6209850;23;20064;-96
2024/02/08 19:15:22;;;;;;;41.92;14.05;;;;;;;10.47;51.06;98734.03;6211059;23;20008;-96
2024/02/08 19:17:52;;;;;;;35.70;15.07;;;;;;;10.43;51.11;98740.28;6189937;23;20012;-96
2024/02/08 19:20:18;;;;;;;31.92;13.73;;;;;;;10.48;51.25;98742.94;6184357;23;20004;-96
2024/02/08 19:22:50;;;;;;;33.30;13.05;;;;;;;10.35;51.52;98730.91;6181839;23;20011;-96
2024/02/08 19:25:21;;;;;;;39.45;12.55;;;;;;;10.28;51.89;98725.84;6183527;23;20008;-96
2024/02/08 19:27:49;;;;;;;31.27;12.13;;;;;;;10.33;51.86;98738.47;6180740;23;20007;-96
2024/02/08 19:30:34;;;;;;;20.70;10.73;;;;;;;10.19;51.96;98722.16;6181773;23;20000;-96
2024/02/08 19:33:10;;;;;;;26.00;10.63;;;;;;;10.16;52.35;98738.06;6189181;23;19996;-96
2024/02/08 19:35:41;;;;;;;21.25;8.38;;;;;;;10.10;51.94;98745.34;6186854;23;20000;-96
2024/02/08 19:38:19;;;;;;;24.90;8.77;;;;;;;10.00;51.74;98745.44;6183888;23;20004;-96
2024/02/08 19:40:56;;;;;;;20.08;8.50;;;;;;;9.98;52.02;98745.72;6208297;23;20016;-96
2024/02/08 19:43:36;;;;;;;;;;;;;;;;;;;;;
2024/02/08 19:46:11;;;;;;;22.95;8.98;;;;;;;9.75;52.69;98717.63;6215133;23;20003;-96
2024/02/08 19:48:41;;;;;;;27.92;9.45;;;;;;;9.73;52.43;98727.06;6201376;23;20065;-96
2024/02/08 19:51:11;;;;;;;12.90;6.22;;;;;;;9.50;52.82;98723.97;6178702;23;20063;-96
2024/02/08 19:53:49;;;;;;;14.55;7.05;;;;;;;9.55;52.51;98739.28;6180012;23;20351;-96
2024/02/08 19:56:18;;;;;;;16.35;6.10;;;;;;;9.58;52.38;98752.94;6176749;23;20015;-96
2024/02/08 19:58:47;;;;;;;17.45;6.90;;;;;;;9.34;52.61;98731.31;6176071;23;20000;-96
2024/02/08 20:01:16;;;;;;;17.48;6.80;;;;;;;9.36;52.92;98737.22;6176300;23;20000;-96
2024/02/08 20:03:52;;;;;;;12.20;6.28;;;;;;;9.34;53.06;98738.53;6178200;23;20008;-96
2024/02/08 20:06:21;;;;;;;12.40;6.93;;;;;;;9.23;52.74;98735.91;6176047;23;20070;-96